Time;durP1;ratioP1;P1;durP2;ratioP2;P2;SDS_P1;SDS_P2;PMS_P1;PMS_P2;Temp;Humidity;BMP_temperature;BMP_pressure;BME280_temperature;BME280_humidity;BME280_pressure;Samples;Min_cycle;Max_cycle;Signal;HPM_P1;HPM_P2
2022/12/15 07:59:11;;;;;;;19.10;11.10;;;;;;;-8.78;68.68;99822.81;10514635;27;20661;-77
2022/12/15 08:04:34;;;;;;;19.87;12.80;;;;;;;-8.62;68.71;99824.16;10466806;28;20206;-77
2022/12/15 08:09:56;;;;;;;15.80;9.87;;;;;;;-8.46;68.42;99831.00;10473607;28;20689;-77
2022/12/15 08:15:18;;;;;;;13.93;10.27;;;;;;;-8.31;67.01;99831.50;10462529;28;20266;-79
2022/12/15 08:20:40;;;;;;;17.13;11.67;;;;;;;-8.23;66.03;99828.47;10471658;28;20227;-76
2022/12/15 08:26:11;;;;;;;16.27;10.57;;;;;;;-8.32;67.62;99835.28;10473832;28;20211;-76
2022/12/15 08:31:33;;;;;;;15.77;10.57;;;;;;;-8.20;67.52;99841.69;10493958;28;20281;-76
2022/12/15 08:36:56;;;;;;;15.40;11.00;;;;;;;-8.01;67.00;99837.94;10472945;28;20320;-76
2022/12/15 08:42:18;;;;;;;15.90;10.43;;;;;;;-7.96;66.49;99839.97;10482258;28;20226;-76
2022/12/15 08:47:40;;;;;;;15.53;10.43;;;;;;;-7.89;65.94;99845.41;10473319;28;20489;-76
2022/12/15 08:53:02;;;;;;;14.57;10.60;;;;;;;-7.86;66.32;99842.19;10455940;28;20464;-76
2022/12/15 08:58:24;;;;;;;15.87;10.33;;;;;;;-7.82;66.98;99835.22;10478498;28;20714;-76
2022/12/15 09:03:46;;;;;;;14.90;10.10;;;;;;;-7.46;65.43;99846.16;10470499;28;20231;-76
2022/12/15 09:09:10;;;;;;;15.80;10.77;;;;;;;-7.10;63.68;99849.94;10481031;28;20216;-76
2022/12/15 09:16:15;;;;;;;15.77;10.13;;;;;;;-7.26;64.54;99856.03;10621886;27;20507;-76
2022/12/15 09:21:38;;;;;;;16.60;10.47;;;;;;;-7.23;64.38;99852.84;10591085;27;20209;-76
2022/12/15 09:27:02;;;;;;;16.23;10.40;;;;;;;-6.97;62.98;99860.69;10599818;27;20220;-76
2022/12/15 09:32:24;;;;;;;21.87;11.00;;;;;;;-7.07;63.46;99868.59;10611726;27;20296;-76
2022/12/15 09:37:46;;;;;;;19.30;11.13;;;;;;;-6.93;63.11;99878.31;10621266;27;20193;-77
2022/12/15 09:43:11;;;;;;;13.27;9.37;;;;;;;-6.79;60.88;99888.03;10618852;27;20213;-78
2022/12/15 09:48:40;;;;;;;13.97;10.67;;;;;;;-6.68;60.76;99895.47;10619503;27;20222;-79
2022/12/15 09:54:02;;;;;;;16.13;10.33;;;;;;;-6.74;60.93;99907.38;10603918;27;20289;-80
2022/12/15 09:59:50;;;;;;;14.80;10.23;;;;;;;-6.46;59.13;99905.91;10528893;28;20206;-80
2022/12/15 10:05:12;;;;;;;14.17;9.90;;;;;;;-6.45;59.99;99907.59;10577830;28;20285;-77
2022/12/15 10:11:00;;;;;;;13.57;9.77;;;;;;;-6.40;59.57;99910.44;10595193;28;20225;-77
2022/12/15 10:16:34;;;;;;;16.00;10.40;;;;;;;-6.42;60.46;99915.31;10567058;28;20213;-77
2022/12/15 10:21:57;;;;;;;14.47;10.50;;;;;;;-6.44;59.80;99922.97;10564124;28;20251;-78
2022/12/15 10:27:45;;;;;;;14.20;9.90;;;;;;;-6.32;58.77;99916.44;10565735;28;20221;-82
2022/12/15 10:33:18;;;;;;;16.17;9.93;;;;;;;-6.00;58.89;99922.47;10528559;28;20318;-79
2022/12/15 10:38:44;;;;;;;15.53;9.80;;;;;;;-5.97;58.69;99916.50;10539975;28;20609;-78
2022/12/15 10:44:22;;;;;;;14.50;9.10;;;;;;;-5.76;58.04;99911.50;10544657;28;20278;-78
2022/12/15 10:49:45;;;;;;;13.47;9.33;;;;;;;-5.71;57.65;99911.63;10548869;28;20258;-78
2022/12/15 10:55:36;;;;;;;13.97;9.70;;;;;;;-5.28;57.44;99903.84;10510370;28;20246;-77
2022/12/15 11:01:15;;;;;;;16.50;10.40;;;;;;;-5.08;57.01;99908.91;10530763;28;20213;-79
2022/12/15 11:06:41;;;;;;;12.63;9.80;;;;;;;-5.46;58.52;99894.91;10547288;28;20221;-79
2022/12/15 11:18:12;;;;;;;14.27;10.00;;;;;;;-5.22;58.89;99886.38;10545313;27;20244;-78
2022/12/15 11:23:56;;;;;;;14.53;10.10;;;;;;;-5.00;58.97;99888.44;10537754;28;20228;-79
2022/12/15 11:29:45;;;;;;;15.47;9.90;;;;;;;-4.84;58.58;99898.69;10521913;28;20305;-79
2022/12/15 11:35:13;;;;;;;17.30;11.50;;;;;;;-4.69;58.60;99892.66;10512597;28;20253;-79
2022/12/15 11:40:41;;;;;;;18.07;11.13;;;;;;;-5.05;60.75;99875.47;10525407;28;20539;-78
2022/12/15 11:46:23;;;;;;;17.57;11.30;;;;;;;-4.79;60.31;99877.63;10530417;27;20272;-78
2022/12/15 11:51:52;;;;;;;18.33;11.63;;;;;;;-5.03;60.27;99875.22;10514092;28;20226;-77
2022/12/15 11:57:40;;;;;;;18.07;11.73;;;;;;;-5.01;61.26;99881.28;10544727;27;20279;-78
2022/12/15 12:03:15;;;;;;;16.47;11.60;;;;;;;-4.26;59.25;99851.66;10498196;28;20225;-78
2022/12/15 12:08:55;;;;;;;16.23;11.40;;;;;;;-4.31;58.58;99846.06;10515928;28;20223;-78
2022/12/15 12:14:38;;;;;;;19.47;11.47;;;;;;;-4.58;59.73;99847.75;10497789;28;20262;-77
2022/12/15 12:20:04;;;;;;;17.20;11.90;;;;;;;-4.30;59.17;99855.13;10509585;28;20201;-79
2022/12/15 12:25:27;;;;;;;18.20;12.73;;;;;;;-4.37;59.94;99847.06;10517246;28;20218;-80
2022/12/15 12:30:49;;;;;;;18.70;12.17;;;;;;;-4.36;59.63;99856.13;10505006;28;20735;-79
2022/12/15 12:36:13;;;;;;;16.93;12.03;;;;;;;-4.09;58.93;99852.47;10495672;28;20257;-78
2022/12/15 12:41:49;;;;;;;19.37;11.37;;;;;;;-4.34;60.99;99842.94;10508692;28;20291;-79
2022/12/15 12:47:28;;;;;;;17.37;11.60;;;;;;;-4.33;60.72;99841.88;10528251;28;20677;-77
2022/12/15 12:52:56;;;;;;;16.67;11.43;;;;;;;-4.52;61.51;99839.38;10518519;28;20260;-77
2022/12/15 12:58:38;;;;;;;16.63;12.43;;;;;;;-4.17;61.03;99838.28;10512211;28;20249;-78
2022/12/15 13:04:10;;;;;;;18.50;11.60;;;;;;;-4.24;60.65;99821.13;10492631;28;20240;-78
2022/12/15 13:09:37;;;;;;;18.40;12.47;;;;;;;-3.91;60.40;99820.25;10500157;28;20210;-79
2022/12/15 13:15:03;;;;;;;18.83;11.10;;;;;;;-4.06;60.48;99813.44;10520949;28;20257;-79
2022/12/15 13:20:28;;;;;;;16.13;10.70;;;;;;;-3.96;59.75;99801.75;10516153;28;20273;-78
2022/12/15 13:25:56;;;;;;;15.90;11.13;;;;;;;-3.92;59.88;99796.56;10499945;28;20236;-76
2022/12/15 13:31:19;;;;;;;17.27;11.93;;;;;;;-3.68;59.12;99800.78;10513909;28;20231;-79
2022/12/15 13:36:46;;;;;;;16.57;10.67;;;;;;;-3.80;60.04;99778.03;10499141;28;20254;-78
2022/12/15 13:42:08;;;;;;;15.93;11.27;;;;;;;-3.61;59.81;99775.81;10517996;28;20295;-80
2022/12/15 13:47:30;;;;;;;17.30;11.27;;;;;;;-3.76;60.05;99774.53;10488610;28;20287;-80
2022/12/15 13:52:54;;;;;;;14.50;10.17;;;;;;;-4.01;61.29;99770.56;10510533;28;20629;-78
2022/12/15 13:58:17;;;;;;;18.03;11.13;;;;;;;-3.99;60.96;99769.25;10532431;28;20237;-79
2022/12/15 14:03:58;;;;;;;15.43;11.37;;;;;;;-4.23;62.16;99778.75;10508121;28;20214;-79
2022/12/15 14:09:33;;;;;;;16.13;11.93;;;;;;;-3.95;61.31;99775.88;10524341;28;20687;-79
2022/12/15 14:14:55;;;;;;;18.60;11.47;;;;;;;-3.95;61.26;99764.88;10431064;28;20296;-79
2022/12/15 14:20:24;;;;;;;16.83;11.57;;;;;;;-4.13;61.71;99757.75;10434546;28;20231;-79
2022/12/15 14:26:13;;;;;;;16.73;11.30;;;;;;;-4.03;61.27;99754.31;10449019;28;20273;-79
2022/12/15 14:31:36;;;;;;;19.57;11.80;;;;;;;-4.13;61.92;99751.41;10444898;28;20227;-79
2022/12/15 14:37:01;;;;;;;16.50;12.10;;;;;;;-4.03;61.62;99747.97;10420019;28;20391;-78
2022/12/15 14:42:25;;;;;;;19.33;12.73;;;;;;;-4.20;62.33;99734.22;10431925;28;20257;-76
2022/12/15 14:47:54;;;;;;;21.37;12.37;;;;;;;-4.45;62.87;99741.03;10438181;28;20664;-77
2022/12/15 14:53:17;;;;;;;18.13;13.23;;;;;;;-4.41;63.32;99733.94;10423177;28;20243;-80
2022/12/15 14:58:40;;;;;;;21.53;14.97;;;;;;;-4.66;64.63;99732.69;10455864;28;20248;-82
2022/12/15 15:04:05;;;;;;;22.13;16.30;;;;;;;-4.34;63.89;99725.50;10429755;28;20216;-77
2022/12/15 15:09:38;;;;;;;21.23;13.33;;;;;;;-4.53;64.33;99727.69;10422765;28;20659;-79
2022/12/15 15:15:04;;;;;;;21.97;13.10;;;;;;;-4.93;64.92;99732.50;10488505;28;20258;-78
2022/12/15 15:20:28;;;;;;;21.77;12.80;;;;;;;-5.06;65.65;99736.41;10518956;28;20218;-77
2022/12/15 15:25:57;;;;;;;18.90;13.50;;;;;;;-5.23;66.28;99736.38;10554091;27;20210;-78
2022/12/15 15:31:27;;;;;;;22.20;14.77;;;;;;;-5.47;67.28;99740.28;10512546;28;20553;-78
2022/12/15 15:36:49;;;;;;;22.83;13.87;;;;;;;-5.40;67.28;99746.47;10501051;28;20642;-81
2022/12/15 15:42:12;;;;;;;22.23;15.03;;;;;;;-5.43;67.31;99746.97;10502446;28;20206;-82
2022/12/15 15:47:35;;;;;;;28.33;16.43;;;;;;;-5.47;67.22;99750.44;10507469;28;20222;-79
2022/12/15 15:52:57;;;;;;;24.03;14.87;;;;;;;-5.92;68.39;99760.22;10528700;28;20244;-82
2022/12/15 15:58:20;;;;;;;26.73;16.13;;;;;;;-5.87;68.94;99764.97;10529068;28;20296;-77
2022/12/15 16:03:45;;;;;;;21.17;15.07;;;;;;;-5.91;67.93;99781.09;10511809;28;20234;-82
2022/12/15 16:09:11;;;;;;;23.23;17.00;;;;;;;-5.89;68.94;99781.69;10535454;28;20198;-83
2022/12/15 16:14:34;;;;;;;30.33;17.93;;;;;;;-6.11;68.97;99790.78;10493270;28;20227;-81
2022/12/15 16:19:57;;;;;;;29.33;20.83;;;;;;;-6.20;69.39;99801.28;10491447;28;20210;-84
2022/12/15 16:25:33;;;;;;;31.73;21.30;;;;;;;-6.44;69.95;99810.56;10497967;28;20277;-84
2022/12/15 16:30:57;;;;;;;34.67;21.87;;;;;;;-6.40;70.01;99811.75;10503077;28;20199;-81
2022/12/15 16:36:20;;;;;;;31.27;21.00;;;;;;;-6.39;69.91;99814.25;10490804;28;20238;-82
2022/12/15 16:41:43;;;;;;;30.73;21.03;;;;;;;-6.29;70.38;99821.88;10481133;28;20214;-83
2022/12/15 16:47:05;;;;;;;29.43;20.47;;;;;;;-6.62;70.86;99826.03;10463498;28;20270;-79
2022/12/15 16:52:28;;;;;;;34.57;21.17;;;;;;;-6.77;71.08;99825.63;10477213;28;20235;-77
2022/12/15 16:57:51;;;;;;;31.10;20.77;;;;;;;-6.64;70.65;99832.81;10485282;28;20369;-81
2022/12/15 17:03:15;;;;;;;32.73;21.80;;;;;;;-6.56;69.93;99830.53;10470930;28;20281;-83
2022/12/15 17:08:39;;;;;;;33.23;22.13;;;;;;;-7.01;70.49;99854.00;10472643;28;20231;-82
2022/12/15 17:14:02;;;;;;;38.67;23.33;;;;;;;-6.99;70.86;99846.41;10516525;28;20260;-82
2022/12/15 17:19:24;;;;;;;42.93;27.10;;;;;;;-6.91;70.79;99846.06;10525042;28;20218;-82
2022/12/15 17:24:46;;;;;;;40.80;27.17;;;;;;;-6.87;71.80;99854.66;10503784;28;20245;-79
2022/12/15 17:30:12;;;;;;;46.43;27.67;;;;;;;-6.87;70.09;99860.13;10504921;28;20602;-80
2022/12/15 17:35:34;;;;;;;43.90;27.37;;;;;;;-7.05;71.02;99870.06;10513868;28;20246;-82
2022/12/15 17:40:57;;;;;;;41.27;25.60;;;;;;;-7.19;71.27;99873.19;10538515;28;20240;-81
2022/12/15 17:46:19;;;;;;;38.47;25.67;;;;;;;-7.23;71.73;99882.97;10516487;28;20214;-82
2022/12/15 17:51:43;;;;;;;47.47;29.03;;;;;;;-7.23;71.99;99885.69;10532254;28;20460;-83
2022/12/15 17:57:05;;;;;;;48.87;30.73;;;;;;;-7.23;72.14;99888.44;10507466;28;20718;-83
2022/12/15 18:02:27;;;;;;;57.63;35.93;;;;;;;-7.46;71.56;99900.88;10518828;28;20234;-80
2022/12/15 18:07:54;;;;;;;61.37;36.67;;;;;;;-7.31;72.00;99911.47;10520123;28;20334;-81
2022/12/15 18:13:27;;;;;;;53.40;35.77;;;;;;;-7.16;71.41;99916.56;10519105;28;20684;-81
2022/12/15 18:18:49;;;;;;;42.87;29.20;;;;;;;-7.20;71.33;99909.84;10518474;28;20218;-86
2022/12/15 18:24:12;;;;;;;39.97;26.30;;;;;;;-7.14;72.09;99898.00;10509263;28;20214;-84
2022/12/15 18:29:34;;;;;;;45.83;29.07;;;;;;;-7.41;71.73;99892.84;10497508;28;20222;-83
2022/12/15 18:34:57;;;;;;;36.83;25.00;;;;;;;-7.19;71.84;99873.19;10499231;28;20246;-84
2022/12/15 18:40:23;;;;;;;42.87;25.27;;;;;;;-7.36;71.63;99873.84;10499285;28;20277;-80
2022/12/15 18:45:46;;;;;;;36.47;24.50;;;;;;;-7.86;73.02;99861.31;10517913;28;20214;-79
2022/12/15 18:51:19;;;;;;;38.30;24.57;;;;;;;-7.49;72.10;99871.25;10534165;28;20230;-78
2022/12/15 18:56:42;;;;;;;38.47;26.50;;;;;;;-7.54;72.16;99868.34;10527342;28;20249;-79
2022/12/15 19:02:06;;;;;;;40.30;24.87;;;;;;;-7.72;72.50;99868.34;10497212;28;20245;-80
2022/12/15 19:07:29;;;;;;;39.43;25.97;;;;;;;-7.61;71.95;99870.31;10523021;28;20259;-79
2022/12/15 19:12:51;;;;;;;40.33;27.40;;;;;;;-8.01;71.81;99884.44;10508057;28;20695;-79
2022/12/15 19:23:55;;;;;;;38.07;24.30;;;;;;;-7.87;72.22;99881.56;10553080;28;20218;-80
2022/12/15 19:29:22;;;;;;;39.23;24.27;;;;;;;-8.18;72.41;99864.16;10519861;28;20221;-78
2022/12/15 19:34:44;;;;;;;39.57;25.23;;;;;;;-7.69;72.20;99866.00;10542571;27;20263;-79
2022/12/15 19:40:15;;;;;;;40.00;24.83;;;;;;;-8.08;71.93;99864.50;10523632;28;20287;-80
2022/12/15 19:45:37;;;;;;;37.17;23.10;;;;;;;-8.03;73.04;99861.94;10529400;28;20226;-82
2022/12/15 19:50:59;;;;;;;35.17;23.90;;;;;;;-7.84;70.90;99851.84;10485267;28;20538;-84
2022/12/15 19:56:22;;;;;;;37.93;25.20;;;;;;;-8.08;72.78;99859.03;10508407;28;20238;-78
2022/12/15 20:01:45;;;;;;;31.13;21.17;;;;;;;-8.45;75.10;99860.81;10506847;28;20540;-78
2022/12/15 20:07:14;;;;;;;35.47;22.30;;;;;;;-7.95;73.11;99868.16;10491573;28;20229;-79
2022/12/15 20:12:37;;;;;;;34.13;22.33;;;;;;;-8.43;74.91;99866.06;10520681;28;20246;-78
2022/12/15 20:17:59;;;;;;;33.40;22.60;;;;;;;-8.16;73.17;99877.63;10506021;28;20319;-79
2022/12/15 20:23:25;;;;;;;36.47;24.90;;;;;;;-8.35;73.56;99882.19;10535398;28;20218;-78
2022/12/15 20:28:47;;;;;;;38.60;26.13;;;;;;;-8.54;76.59;99869.53;10522580;28;20201;-78
2022/12/15 20:34:09;;;;;;;38.73;26.30;;;;;;;-8.57;76.06;99867.22;10530963;28;20242;-79
2022/12/15 20:39:32;;;;;;;35.87;23.67;;;;;;;-8.62;73.94;99864.31;10519412;28;20278;-78
2022/12/15 20:44:54;;;;;;;35.10;22.90;;;;;;;-8.77;75.80;99864.63;10546820;28;20191;-78
2022/12/15 20:50:22;;;;;;;34.53;23.43;;;;;;;-8.28;74.61;99857.53;10544361;28;20198;-78
2022/12/15 20:55:45;;;;;;;35.73;22.87;;;;;;;-8.77;74.54;99864.63;10530390;28;20268;-79
2022/12/15 21:01:16;;;;;;;32.13;21.57;;;;;;;-8.67;74.72;99855.97;10523283;28;20602;-78
2022/12/15 21:06:38;;;;;;;33.93;22.47;;;;;;;-8.41;72.45;99855.75;10514777;28;20199;-78
2022/12/15 21:12:00;;;;;;;37.73;22.43;;;;;;;-8.71;72.90;99858.28;10546467;28;20218;-80
2022/12/15 21:17:24;;;;;;;35.60;23.97;;;;;;;-9.38;76.50;99867.06;10543817;28;20225;-79
2022/12/15 21:22:46;;;;;;;37.70;23.93;;;;;;;-8.84;72.69;99864.69;10539316;28;20211;-78
2022/12/15 21:28:10;;;;;;;34.40;22.00;;;;;;;-8.82;72.81;99873.50;10556566;28;20459;-78
2022/12/15 21:33:32;;;;;;;31.73;20.90;;;;;;;-8.66;74.01;99869.41;10545766;28;20251;-78
2022/12/15 21:38:54;;;;;;;30.43;20.80;;;;;;;-8.64;74.44;99880.09;10561832;28;20357;-78
2022/12/15 21:44:17;;;;;;;30.70;21.13;;;;;;;-8.64;73.24;99880.09;10548003;28;20195;-78
2022/12/15 21:49:39;;;;;;;29.00;19.63;;;;;;;-8.81;73.21;99880.63;10522869;28;20195;-78
2022/12/15 21:55:01;;;;;;;32.13;20.97;;;;;;;-8.60;73.36;99881.31;10541411;28;20629;-79
2022/12/15 22:00:24;;;;;;;28.87;19.50;;;;;;;-8.81;72.34;99879.78;10523013;28;20601;-78
2022/12/15 22:05:46;;;;;;;31.13;20.47;;;;;;;-9.10;73.00;99875.75;10507059;28;20264;-78
2022/12/15 22:11:18;;;;;;;29.67;20.00;;;;;;;-9.08;71.80;99879.09;10515713;28;20195;-79
2022/12/15 22:16:40;;;;;;;31.03;19.67;;;;;;;-9.19;72.68;99877.06;10533541;28;20209;-79
2022/12/15 22:22:02;;;;;;;34.73;21.30;;;;;;;-9.03;72.13;99892.06;10528688;28;20274;-79
2022/12/15 22:27:25;;;;;;;34.87;20.93;;;;;;;-9.39;74.09;99903.56;10530056;28;20195;-79
2022/12/15 22:32:47;;;;;;;31.63;20.90;;;;;;;-9.28;74.37;99897.44;10544720;28;20190;-78
2022/12/15 22:38:09;;;;;;;32.17;20.63;;;;;;;-9.15;74.68;99903.69;10536498;28;20502;-79
2022/12/15 22:43:35;;;;;;;33.00;20.80;;;;;;;-9.53;74.64;99919.16;10535224;28;20210;-84
2022/12/15 22:48:57;;;;;;;30.57;21.20;;;;;;;-9.21;73.22;99928.28;10550998;28;20191;-78
2022/12/15 22:54:21;;;;;;;29.93;20.27;;;;;;;-9.71;75.84;99921.72;10553124;28;20590;-78
2022/12/15 22:59:51;;;;;;;30.67;21.23;;;;;;;-9.73;74.68;99927.38;10539592;28;20316;-79
2022/12/15 23:05:15;;;;;;;38.07;22.27;;;;;;;-9.64;73.53;99934.28;10532767;28;20315;-79
2022/12/15 23:16:18;;;;;;;31.13;19.77;;;;;;;-9.93;75.36;99934.75;10567261;27;20225;-78
2022/12/15 23:21:40;;;;;;;28.90;18.23;;;;;;;-9.62;72.51;99932.19;10521357;28;20202;-85
2022/12/15 23:27:02;;;;;;;30.10;19.77;;;;;;;-9.55;72.88;99926.69;10526203;28;20220;-78
2022/12/15 23:32:24;;;;;;;29.43;19.63;;;;;;;-9.87;75.63;99936.63;10548613;28;20519;-78
2022/12/15 23:37:46;;;;;;;30.63;20.30;;;;;;;-9.69;73.35;99944.19;10535426;28;20222;-79
2022/12/15 23:43:08;;;;;;;30.47;19.70;;;;;;;-9.85;73.75;99948.19;10533515;28;20259;-79
2022/12/15 23:48:32;;;;;;;30.83;20.67;;;;;;;-9.78;75.01;99949.00;10557846;28;20219;-79
2022/12/15 23:53:54;;;;;;;28.07;19.37;;;;;;;-9.69;73.64;99952.34;10564888;28;20198;-83
2022/12/15 23:59:17;;;;;;;30.60;19.13;;;;;;;-9.43;73.42;99947.66;10559700;28;20226;-80
